Time;durP1;ratioP1;P1;durP2;ratioP2;P2;SDS_P1;SDS_P2;PMS_P1;PMS_P2;Temp;Humidity;BMP_temperature;BMP_pressure;BME280_temperature;BME280_humidity;BME280_pressure;Samples;Min_cycle;Max_cycle;Signal;HPM_P1;HPM_P2
2021/01/27 00:09:49;;;;;;;37.3;25.9;;;;;;;-2.16;78.37402;98326.44;;;;
2021/01/27 00:19:46;;;;;;;33.4;22.7;;;;;;;-2.05;77.95605;98322.95;;;;
2021/01/27 00:29:43;;;;;;;33.8;22.2;;;;;;;-2.11;77.57227;98320.44;;;;
2021/01/27 00:39:41;;;;;;;24.9;20.4;;;;;;;-2.01;77.44629;98317.23;;;;
2021/01/27 00:49:38;;;;;;;22.8;17.6;;;;;;;-2.18;77.39453;98302.09;;;;
2021/01/27 00:59:36;;;;;;;18;16.1;;;;;;;-2.4;77.68262;98302.95;;;;
2021/01/27 01:09:33;;;;;;;23.1;16.7;;;;;;;-2.41;78.31543;98299.5;;;;
2021/01/27 01:19:31;;;;;;;20.3;15.4;;;;;;;-2.24;78.04199;98303.03;;;;
2021/01/27 01:29:28;;;;;;;19;15.1;;;;;;;-2.17;77.72656;98295.79;;;;
2021/01/27 01:39:26;;;;;;;17.5;15.1;;;;;;;-1.98;77.48535;98295.64;;;;
2021/01/27 01:49:23;;;;;;;23.6;16.4;;;;;;;-1.92;79.6875;98316.63;;;;
2021/01/27 01:59:21;;;;;;;17.3;14;;;;;;;-2.1;84.79297;98301.75;;;;
2021/01/27 02:09:18;;;;;;;19.4;17;;;;;;;-2.14;86.10742;98305.88;;;;
2021/01/27 02:19:51;;;;;;;24.5;17.8;;;;;;;-2.25;86.87012;98298.78;;;;
2021/01/27 02:29:43;;;;;;;19.9;15;;;;;;;-2.26;86.87891;98289.28;;;;
2021/01/27 02:39:18;;;;;;;22.1;17;;;;;;;-2.24;87.18848;98291.67;;;;
2021/01/27 02:49:08;;;;;;;26;14.3;;;;;;;-2.25;87.76465;98292.7;;;;
2021/01/27 02:59:06;;;;;;;22.2;13;;;;;;;-2.19;87.55078;98303.16;;;;
2021/01/27 03:09:03;;;;;;;17.6;10.3;;;;;;;-2.27;87.4668;98290.3;;;;
2021/01/27 03:19:02;;;;;;;14.7;10.8;;;;;;;-2.19;86.84082;98287.31;;;;
2021/01/27 03:28:58;;;;;;;14.7;9.1;;;;;;;-2.23;87.0918;98285.36;;;;
2021/01/27 03:38:56;;;;;;;14.8;9.1;;;;;;;-2.14;86.44629;98284.77;;;;
2021/01/27 03:48:53;;;;;;;14.1;10.5;;;;;;;-2.12;86.28418;98284.55;;;;
2021/01/27 03:58:50;;;;;;;19.9;12.9;;;;;;;-2.02;86.02148;98290.02;;;;
2021/01/27 04:08:48;;;;;;;18.5;16.3;;;;;;;-2.06;86.74609;98294.97;;;;
2021/01/27 04:18:45;;;;;;;26.5;18;;;;;;;-1.94;86.66992;98286.22;;;;
2021/01/27 04:28:43;;;;;;;28.4;22.5;;;;;;;-1.93;87.03223;98287.8;;;;
2021/01/27 04:38:40;;;;;;;21.7;17.4;;;;;;;-1.92;87.04688;98289.41;;;;
2021/01/27 04:48:37;;;;;;;25.2;18.7;;;;;;;-1.97;87.74512;98284.02;;;;
2021/01/27 04:58:37;;;;;;;28.6;19.4;;;;;;;-2.06;87.98926;98283.6;;;;
2021/01/27 05:08:32;;;;;;;40;27.3;;;;;;;-2.01;87.82324;98296.11;;;;
2021/01/27 05:18:30;;;;;;;24.6;16.6;;;;;;;-1.91;87.24316;98285.75;;;;
2021/01/27 05:28:32;;;;;;;26.2;21;;;;;;;-1.88;86.87012;98296.64;;;;
2021/01/27 05:38:30;;;;;;;20.3;15.7;;;;;;;-1.88;86.72656;98293.2;;;;
2021/01/27 05:48:23;;;;;;;21.7;14.5;;;;;;;-1.85;86.68945;98284.8;;;;
2021/01/27 05:58:20;;;;;;;17.9;13.7;;;;;;;-1.83;86.60645;98294.09;;;;
2021/01/27 06:08:18;;;;;;;20.1;15.6;;;;;;;-1.85;86.92969;98290.08;;;;
2021/01/27 06:18:15;;;;;;;20.1;11.8;;;;;;;-1.81;86.6748;98301.78;;;;
2021/01/27 06:28:13;;;;;;;22.2;13.9;;;;;;;-1.79;86.5166;98304.98;;;;
2021/01/27 06:38:11;;;;;;;19.9;14.8;;;;;;;-1.7;87.04688;98308.88;;;;
2021/01/27 06:48:08;;;;;;;22.5;18.5;;;;;;;-1.69;87.55273;98305.98;;;;
2021/01/27 06:58:06;;;;;;;24.7;16.1;;;;;;;-1.69;88.43848;98315.73;;;;
2021/01/27 07:08:03;;;;;;;19.8;15.6;;;;;;;-1.62;88.44043;98332.25;;;;
2021/01/27 07:18:01;;;;;;;26.3;18.5;;;;;;;-1.55;88.43555;98323.16;;;;
2021/01/27 07:27:58;;;;;;;29.4;20.4;;;;;;;-1.44;87.41895;98318.86;;;;
2021/01/27 07:37:57;;;;;;;28.1;18.1;;;;;;;-1.36;87.05078;98328.26;;;;
2021/01/27 07:47:54;;;;;;;26.5;20.6;;;;;;;-1.26;86.61328;98329.24;;;;
2021/01/27 07:57:51;;;;;;;26.2;20.7;;;;;;;-1.11;86.06348;98337.42;;;;
2021/01/27 08:07:49;;;;;;;29.3;23.4;;;;;;;-0.94;85.33984;98347.23;;;;
2021/01/27 08:17:47;;;;;;;39.4;27.4;;;;;;;-0.8;84.50293;98348.53;;;;
2021/01/27 08:27:44;;;;;;;34.7;23.7;;;;;;;-0.83;84.61816;98354.3;;;;
2021/01/27 08:37:41;;;;;;;33.9;24.5;;;;;;;-0.78;84.36621;98355.17;;;;
2021/01/27 08:47:39;;;;;;;37.4;26;;;;;;;-0.51;83.08203;98361.42;;;;
2021/01/27 08:57:37;;;;;;;30.2;25;;;;;;;-0.79;83.80566;98366.79;;;;
2021/01/27 09:07:34;;;;;;;33.7;24.6;;;;;;;-0.91;84.17285;98367.91;;;;
2021/01/27 09:17:32;;;;;;;30.4;20.9;;;;;;;-0.61;82.35938;98378.98;;;;
2021/01/27 09:27:30;;;;;;;43.8;30.4;;;;;;;-0.52;81.38867;98375.69;;;;
2021/01/27 09:37:30;;;;;;;32.2;23.3;;;;;;;-0.25;79.12109;98377.7;;;;
2021/01/27 09:47:29;;;;;;;26.3;18.2;;;;;;;0.21;76.23242;98371.18;;;;
2021/01/27 09:57:23;;;;;;;50.2;28.5;;;;;;;0.42;73.54785;98365.05;;;;
2021/01/27 10:07:21;;;;;;;25.1;15;;;;;;;0.37;73.58301;98354.41;;;;
2021/01/27 10:17:19;;;;;;;22.7;14.9;;;;;;;0.32;73.16699;98352.48;;;;
2021/01/27 10:27:16;;;;;;;19.4;15.3;;;;;;;-0.53;77.98145;98357.42;;;;
2021/01/27 10:37:14;;;;;;;23.6;16.7;;;;;;;-0.71;81.17578;98382.28;;;;
2021/01/27 10:47:13;;;;;;;31.3;20;;;;;;;-0.54;80.58203;98374.34;;;;
2021/01/27 10:57:09;;;;;;;19.3;15.9;;;;;;;-0.32;78.74512;98369.13;;;;
2021/01/27 11:07:07;;;;;;;17;12.8;;;;;;;-0.46;78.13574;98362.55;;;;
2021/01/27 11:17:05;;;;;;;19.3;11.9;;;;;;;-0.74;80.75293;98371.38;;;;
2021/01/27 11:27:03;;;;;;;15.8;13.5;;;;;;;-0.55;79.70215;98359.49;;;;
2021/01/27 11:37:01;;;;;;;19;11.4;;;;;;;-0.37;77.57129;98359.25;;;;
2021/01/27 11:46:58;;;;;;;14.1;8.5;;;;;;;-0.18;74.71094;98357.95;;;;
2021/01/27 11:56:57;;;;;;;14.2;10;;;;;;;-0.52;75.54102;98356.36;;;;
2021/01/27 12:06:54;;;;;;;13.3;8.5;;;;;;;-0.58;76.35645;98362.63;;;;
2021/01/27 12:16:52;;;;;;;19;11.8;;;;;;;-0.49;79.66992;98363.84;;;;
2021/01/27 12:26:50;;;;;;;22.6;12.3;;;;;;;-0.25;77.36133;98357.32;;;;
2021/01/27 12:36:47;;;;;;;21.4;13.1;;;;;;;-0.05;78.0918;98357.59;;;;
2021/01/27 12:46:45;;;;;;;17.2;14.1;;;;;;;-0.21;78.21484;98365.58;;;;
2021/01/27 12:56:43;;;;;;;19.9;13.5;;;;;;;-0.5;81.5459;98359.59;;;;
2021/01/27 13:06:41;;;;;;;17.6;13.9;;;;;;;-0.26;81.63574;98358.36;;;;
2021/01/27 13:16:38;;;;;;;17.9;13.1;;;;;;;-0.58;81.4209;98373.21;;;;
2021/01/27 13:26:37;;;;;;;13.9;9.7;;;;;;;-0.74;81.47754;98382.77;;;;
2021/01/27 13:36:34;;;;;;;16;11.9;;;;;;;-0.61;81.64551;98389.58;;;;
2021/01/27 13:46:32;;;;;;;14.1;10.8;;;;;;;-0.64;80.44238;98382.12;;;;
2021/01/27 13:56:29;;;;;;;20.1;14.8;;;;;;;-0.39;79.56641;98371.94;;;;
2021/01/27 14:06:28;;;;;;;21.5;16.4;;;;;;;-0.48;80.95801;98381.31;;;;
2021/01/27 14:16:28;;;;;;;25.7;21.1;;;;;;;-0.47;82.14355;98395.35;;;;
2021/01/27 14:26:22;;;;;;;25.8;20.7;;;;;;;-0.61;83.80762;98392.22;;;;
2021/01/27 14:36:20;;;;;;;37.7;28.2;;;;;;;-0.55;85.27637;98393.9;;;;
2021/01/27 14:46:18;;;;;;;29.8;22.2;;;;;;;-0.79;86.74219;98392.44;;;;
2021/01/27 14:56:15;;;;;;;33.3;25.4;;;;;;;-0.77;86.93164;98385.09;;;;
2021/01/27 15:06:13;;;;;;;32.9;25.9;;;;;;;-0.76;87.18359;98386.67;;;;
2021/01/27 15:16:11;;;;;;;35.4;24.5;;;;;;;-0.91;86.83691;98387.23;;;;
2021/01/27 15:26:09;;;;;;;28.6;22.6;;;;;;;-1.01;86.83008;98403.7;;;;
2021/01/27 15:36:06;;;;;;;36.9;27.4;;;;;;;-1.25;86.75684;98381.05;;;;
2021/01/27 15:46:04;;;;;;;39.1;24.8;;;;;;;-1.2;86.24219;98394.38;;;;
2021/01/27 15:56:01;;;;;;;45.2;27.1;;;;;;;-1.27;85.70313;98396.36;;;;
2021/01/27 16:05:59;;;;;;;27.6;24.4;;;;;;;-1.26;85.5957;98397.17;;;;
2021/01/27 16:15:57;;;;;;;31.2;23.3;;;;;;;-1.3;84.90918;98415.34;;;;
2021/01/27 16:25:54;;;;;;;31;21.6;;;;;;;-1.25;83.17676;98396.91;;;;
2021/01/27 16:35:52;;;;;;;23.8;18.7;;;;;;;-1.28;82.23926;98401.88;;;;
2021/01/27 16:45:50;;;;;;;30.4;19.9;;;;;;;-1.23;80.72559;98394.05;;;;
2021/01/27 16:55:47;;;;;;;37.7;25.2;;;;;;;-1.31;80.99609;98405.8;;;;
2021/01/27 17:05:45;;;;;;;38.7;26;;;;;;;-1.33;81.62793;98404.44;;;;
2021/01/27 17:15:42;;;;;;;50.9;33.8;;;;;;;-1.36;81.70996;98403.07;;;;
2021/01/27 17:25:40;;;;;;;40.5;31.8;;;;;;;-1.44;81.97949;98406.08;;;;
2021/01/27 17:35:38;;;;;;;33.2;23.6;;;;;;;-1.48;82.03809;98402.3;;;;
2021/01/27 17:45:35;;;;;;;27.3;19.1;;;;;;;-1.53;81.79785;98389;;;;
2021/01/27 17:55:33;;;;;;;31.5;21.9;;;;;;;-1.5;82;98396.45;;;;
2021/01/27 18:05:31;;;;;;;36.7;23.1;;;;;;;-1.62;82.35938;98390.38;;;;
2021/01/27 18:15:30;;;;;;;37.9;25.1;;;;;;;-1.62;82.2627;98380.62;;;;
2021/01/27 18:25:30;;;;;;;25.2;21.5;;;;;;;-1.66;81.92578;98383.95;;;;
2021/01/27 18:35:23;;;;;;;55.4;31.2;;;;;;;-1.73;81.95605;98370.07;;;;
2021/01/27 18:45:20;;;;;;;35.8;31.3;;;;;;;-1.64;81.42578;98371.33;;;;
2021/01/27 18:55:18;;;;;;;27.1;23.3;;;;;;;-1.68;81.33105;98364.91;;;;
2021/01/27 19:05:15;;;;;;;42.5;28.2;;;;;;;-1.58;80.98828;98370.39;;;;
2021/01/27 19:15:13;;;;;;;38.4;28;;;;;;;-1.53;81.18457;98375.78;;;;
2021/01/27 19:25:10;;;;;;;35;23.8;;;;;;;-1.55;81.07227;98370.72;;;;
2021/01/27 19:35:08;;;;;;;33.4;25.3;;;;;;;-1.45;80.74023;98359.53;;;;
2021/01/27 19:45:05;;;;;;;40.1;23.7;;;;;;;-1.34;80.78223;98377.2;;;;
2021/01/27 19:55:03;;;;;;;157;100.8;;;;;;;-1.32;80.27051;98369.04;;;;
2021/01/27 20:05:00;;;;;;;67.5;49.4;;;;;;;-1.32;80.08594;98383.03;;;;
2021/01/27 20:14:58;;;;;;;107.4;78.1;;;;;;;-1.37;80.09766;98388.24;;;;
2021/01/27 20:24:56;;;;;;;73.2;50.9;;;;;;;-1.48;80.95215;98382.98;;;;
2021/01/27 20:34:53;;;;;;;58;41.3;;;;;;;-1.57;80.79297;98377.28;;;;
2021/01/27 20:44:51;;;;;;;48.6;40.9;;;;;;;-1.58;80.6709;98380.95;;;;
2021/01/27 20:54:48;;;;;;;54.4;38.1;;;;;;;-1.68;80.28027;98375.47;;;;
2021/01/27 21:04:46;;;;;;;48.9;37.3;;;;;;;-1.76;80.26465;98373.19;;;;
2021/01/27 21:14:43;;;;;;;61.8;42.9;;;;;;;-1.93;80.27441;98385.5;;;;
2021/01/27 21:24:41;;;;;;;62.2;39.7;;;;;;;-2.13;80.62207;98383.24;;;;
2021/01/27 21:34:38;;;;;;;62.5;41.9;;;;;;;-2.24;81.25586;98389.33;;;;
2021/01/27 21:44:36;;;;;;;62;40.7;;;;;;;-2.23;81.60742;98375.91;;;;
2021/01/27 21:54:33;;;;;;;60.6;38.8;;;;;;;-2.23;81.72852;98375.91;;;;
2021/01/27 22:04:31;;;;;;;63.1;46.9;;;;;;;-2.17;81.24805;98374.17;;;;
2021/01/27 22:14:28;;;;;;;59.6;44.7;;;;;;;-2.16;80.64941;98381.88;;;;
2021/01/27 22:24:28;;;;;;;52.1;40.3;;;;;;;-2.08;79.75684;98386.78;;;;
2021/01/27 22:34:23;;;;;;;66.7;39.4;;;;;;;-2.06;79.16895;98390.02;;;;
2021/01/27 22:44:21;;;;;;;61.2;42.7;;;;;;;-2;78.91602;98369.79;;;;
2021/01/27 22:54:18;;;;;;;68.1;42.9;;;;;;;-1.97;79.31543;98365.88;;;;
2021/01/27 23:04:16;;;;;;;56.5;43.8;;;;;;;-1.96;78.80273;98356.92;;;;
2021/01/27 23:14:13;;;;;;;47.3;35;;;;;;;-2.02;77.25781;98365.78;;;;
2021/01/27 23:24:11;;;;;;;50.1;36.3;;;;;;;-2.02;77.46582;98365.78;;;;
2021/01/27 23:34:08;;;;;;;56.9;35.3;;;;;;;-2.22;78.13281;98345.82;;;;
2021/01/27 23:44:06;;;;;;;44.4;30.9;;;;;;;-2.4;77.75879;98353.08;;;;
2021/01/27 23:54:03;;;;;;;43.5;35.3;;;;;;;-2.65;77.74609;98342.75;;;;
